Time;durP1;ratioP1;P1;durP2;ratioP2;P2;SDS_P1;SDS_P2;PMS_P1;PMS_P2;Temp;Humidity;BMP_temperature;BMP_pressure;BME280_temperature;BME280_humidity;BME280_pressure;Samples;Min_cycle;Max_cycle;Signal;HPM_P1;HPM_P2
2023/09/17 00:00:25;;;;;;;8.98;6.97;;;;;;;17.81;86.98;100775.66;5031467;28;20086;-74
2023/09/17 00:02:52;;;;;;;10.23;7.53;;;;;;;17.77;87.36;100779.56;5032095;28;20613;-74
2023/09/17 00:05:20;;;;;;;11.57;8.45;;;;;;;17.74;87.51;100768.31;5069791;28;20044;-72
2023/09/17 00:07:47;;;;;;;13.85;7.72;;;;;;;17.71;87.40;100772.09;5053851;28;20071;-73
2023/09/17 00:10:15;;;;;;;9.82;7.65;;;;;;;17.68;88.06;100773.19;5046025;28;20079;-74
2023/09/17 00:12:42;;;;;;;11.95;7.45;;;;;;;17.65;87.69;100769.94;5068138;28;20048;-73
2023/09/17 00:15:10;;;;;;;9.10;7.55;;;;;;;17.63;88.22;100766.56;5052176;28;20048;-74
2023/09/17 00:17:37;;;;;;;8.00;6.82;;;;;;;17.62;88.54;100768.41;5049407;28;20068;-72
2023/09/17 00:20:10;;;;;;;11.88;8.32;;;;;;;17.59;88.55;100765.16;5052092;28;20047;-73
2023/09/17 00:22:38;;;;;;;10.13;7.03;;;;;;;17.59;88.95;100763.31;5084079;28;20075;-72
2023/09/17 00:25:06;;;;;;;12.05;7.70;;;;;;;17.52;89.14;100764.84;5048562;28;20626;-73
2023/09/17 00:27:33;;;;;;;13.98;7.82;;;;;;;17.48;90.34;100767.91;5049144;28;20093;-73
2023/09/17 00:30:01;;;;;;;8.32;7.43;;;;;;;17.44;90.11;100767.31;5069624;28;20424;-74
2023/09/17 00:32:28;;;;;;;9.50;7.13;;;;;;;17.43;91.04;100765.63;5063562;28;20040;-73
2023/09/17 00:34:56;;;;;;;9.77;6.97;;;;;;;17.39;90.91;100770.38;5063246;28;20500;-74
2023/09/17 00:37:23;;;;;;;9.15;7.38;;;;;;;17.40;91.11;100765.88;5050217;28;20090;-73
2023/09/17 00:39:50;;;;;;;13.18;7.60;;;;;;;17.36;92.16;100761.81;5051998;28;20126;-74
2023/09/17 00:42:18;;;;;;;8.82;7.63;;;;;;;17.34;93.15;100769.09;5066833;28;20052;-72
2023/09/17 00:44:45;;;;;;;8.13;7.32;;;;;;;17.27;92.48;100770.56;5068628;28;20453;-72
2023/09/17 00:47:13;;;;;;;9.25;7.45;;;;;;;17.21;92.75;100764.78;5068981;28;20044;-73
2023/09/17 00:49:41;;;;;;;11.30;8.43;;;;;;;17.21;93.18;100775.44;5051997;28;20067;-73
2023/09/17 00:52:15;;;;;;;12.40;8.18;;;;;;;17.15;93.67;100765.28;5068891;28;20052;-74
2023/09/17 00:54:44;;;;;;;8.23;6.88;;;;;;;17.10;94.08;100772.81;5073122;28;20052;-73
2023/09/17 00:57:15;;;;;;;9.95;6.95;;;;;;;17.04;94.62;100773.34;5042697;28;20063;-73
2023/09/17 00:59:49;;;;;;;12.02;7.70;;;;;;;17.04;94.32;100768.03;5073164;28;20131;-73
2023/09/17 01:02:19;;;;;;;9.23;6.57;;;;;;;17.04;94.82;100770.69;5073950;28;20151;-73
2023/09/17 01:04:51;;;;;;;9.40;7.43;;;;;;;17.03;94.13;100770.81;5087594;28;20119;-74
2023/09/17 01:07:22;;;;;;;12.52;7.65;;;;;;;17.02;94.60;100771.78;5035288;28;20076;-73
2023/09/17 01:09:50;;;;;;;7.82;6.78;;;;;;;16.99;94.58;100759.59;5055319;28;20052;-73
2023/09/17 01:12:18;;;;;;;9.85;7.80;;;;;;;16.99;94.87;100764.06;5056554;28;20125;-73
2023/09/17 01:14:46;;;;;;;11.70;7.60;;;;;;;16.94;95.09;100769.78;5072368;28;20430;-74
2023/09/17 01:17:14;;;;;;;12.57;6.97;;;;;;;16.90;94.58;100766.50;5053470;28;20052;-73
2023/09/17 01:19:42;;;;;;;9.18;7.13;;;;;;;16.90;95.08;100766.50;5057149;28;20072;-73
2023/09/17 01:22:22;;;;;;;9.43;7.88;;;;;;;16.87;95.30;100765.91;5090525;28;20093;-73
2023/09/17 01:25:28;;;;;;;9.38;7.13;;;;;;;16.83;96.14;100767.97;5072621;28;20036;-73
2023/09/17 01:27:56;;;;;;;10.65;7.68;;;;;;;16.77;96.43;100768.50;5071488;28;20052;-73
2023/09/17 01:30:23;;;;;;;10.65;7.80;;;;;;;16.76;96.72;100769.47;5056952;28;20056;-74
2023/09/17 01:32:51;;;;;;;10.57;7.72;;;;;;;16.76;97.66;100771.31;5057753;28;20114;-73
2023/09/17 01:35:18;;;;;;;11.40;7.32;;;;;;;16.70;97.59;100768.13;5070308;28;20056;-75
2023/09/17 01:37:49;;;;;;;9.60;7.07;;;;;;;16.68;97.46;100771.88;5035855;28;20067;-73
2023/09/17 01:40:17;;;;;;;8.88;7.20;;;;;;;16.65;97.62;100770.31;5040314;28;20064;-73
2023/09/17 01:42:46;;;;;;;8.38;6.82;;;;;;;16.63;97.24;100772.28;5071404;28;20068;-73
2023/09/17 01:45:16;;;;;;;9.85;7.57;;;;;;;16.61;97.88;100770.69;5056076;28;20048;-72
2023/09/17 01:47:46;;;;;;;10.18;7.72;;;;;;;16.58;98.27;100771.81;5035659;28;20386;-73
2023/09/17 01:50:15;;;;;;;11.77;8.23;;;;;;;16.53;99.32;100766.03;5056272;28;20044;-73
2023/09/17 01:52:43;;;;;;;10.60;7.22;;;;;;;16.50;99.12;100768.91;5072407;28;20151;-73
2023/09/17 01:55:12;;;;;;;9.95;8.02;;;;;;;16.49;99.06;100763.75;5053503;28;20079;-73
2023/09/17 01:57:41;;;;;;;12.07;9.00;;;;;;;16.51;99.70;100761.78;5050639;28;20113;-72
2023/09/17 02:00:16;;;;;;;9.90;7.00;;;;;;;16.52;100.00;100764.31;5047328;28;20134;-75
2023/09/17 02:02:49;;;;;;;10.05;7.95;;;;;;;16.50;99.83;100768.91;5072926;28;20048;-72
2023/09/17 02:05:17;;;;;;;9.73;8.63;;;;;;;16.56;99.80;100765.75;5031481;28;20483;-73
2023/09/17 02:07:44;;;;;;;10.57;8.38;;;;;;;16.54;99.88;100764.22;5059730;28;20423;-72
2023/09/17 02:10:13;;;;;;;12.70;8.40;;;;;;;16.51;99.91;100761.78;5090372;28;20039;-74
2023/09/17 02:12:40;;;;;;;15.32;7.70;;;;;;;16.42;100.00;100758.06;5069485;28;20560;-73
2023/09/17 02:15:09;;;;;;;9.88;7.85;;;;;;;16.37;100.00;100766.41;5032957;28;20140;-72
2023/09/17 02:17:36;;;;;;;10.93;8.70;;;;;;;16.34;100.00;100771.97;5090846;28;20098;-74
2023/09/17 02:20:08;;;;;;;10.57;8.18;;;;;;;16.38;100.00;100777.88;5068938;28;20068;-74
2023/09/17 02:22:36;;;;;;;11.80;8.63;;;;;;;16.34;100.00;100773.78;5070487;28;20048;-73
2023/09/17 02:25:05;;;;;;;9.50;8.02;;;;;;;16.30;100.00;100775.00;5069394;28;20171;-72
2023/09/17 02:27:33;;;;;;;10.48;8.57;;;;;;;16.29;100.00;100775.97;5037886;28;20198;-74
2023/09/17 02:30:02;;;;;;;11.90;9.07;;;;;;;16.28;100.00;100775.13;5050414;28;20040;-73
2023/09/17 02:32:29;;;;;;;10.10;8.55;;;;;;;16.29;100.00;100768.84;5050150;28;20080;-74
2023/09/17 02:34:57;;;;;;;9.52;7.75;;;;;;;16.30;100.00;100775.88;5062670;28;20119;-73
2023/09/17 02:37:24;;;;;;;11.70;7.30;;;;;;;16.23;100.00;100772.00;5029465;28;20140;-74
2023/09/17 02:39:52;;;;;;;10.20;8.50;;;;;;;16.19;100.00;100768.75;5069724;28;20094;-74
2023/09/17 02:42:19;;;;;;;9.40;8.50;;;;;;;16.16;100.00;100765.47;5036102;28;20048;-74
2023/09/17 02:44:47;;;;;;;11.75;8.48;;;;;;;16.16;100.00;100768.97;5067812;28;20120;-73
2023/09/17 02:47:15;;;;;;;16.50;8.88;;;;;;;16.14;100.00;100770.91;5055372;28;20052;-72
2023/09/17 02:49:42;;;;;;;10.48;8.35;;;;;;;16.09;100.00;100775.75;5071044;28;20052;-73
2023/09/17 02:52:10;;;;;;;11.77;8.60;;;;;;;16.07;100.00;100771.53;5056099;28;20139;-75
2023/09/17 02:54:37;;;;;;;14.73;8.43;;;;;;;16.05;100.00;100776.13;5054850;28;20080;-72
2023/09/17 02:57:04;;;;;;;11.70;9.05;;;;;;;16.06;100.00;100772.50;5056627;28;20432;-73
2023/09/17 02:59:34;;;;;;;9.80;8.80;;;;;;;16.07;100.00;100769.72;5050234;28;20062;-73
2023/09/17 03:02:03;;;;;;;9.43;8.43;;;;;;;16.07;100.00;100759.09;5038074;28;20447;-74
2023/09/17 03:04:31;;;;;;;14.75;10.38;;;;;;;16.09;100.00;100769.59;5050802;28;20132;-74
2023/09/17 03:06:58;;;;;;;12.70;10.15;;;;;;;16.12;100.00;100767.56;5059899;28;20507;-72
2023/09/17 03:09:25;;;;;;;11.32;8.60;;;;;;;16.14;100.00;100770.91;5053971;28;20080;-73
2023/09/17 03:11:53;;;;;;;11.85;8.43;;;;;;;16.12;100.00;100764.91;5054775;28;20048;-74
2023/09/17 03:14:20;;;;;;;9.68;8.70;;;;;;;16.11;100.00;100767.66;5065418;28;20082;-74
2023/09/17 03:16:48;;;;;;;11.70;9.40;;;;;;;16.09;100.00;100764.28;5069171;28;20402;-73
2023/09/17 03:19:15;;;;;;;12.38;8.93;;;;;;;16.05;100.00;100771.66;5056456;28;20056;-74
2023/09/17 03:21:43;;;;;;;10.25;8.88;;;;;;;16.03;100.00;100772.72;5055574;28;20056;-73
2023/09/17 03:24:11;;;;;;;11.82;8.98;;;;;;;16.02;100.00;100769.22;5069812;28;20052;-74
2023/09/17 03:26:38;;;;;;;13.80;8.80;;;;;;;16.02;100.00;100769.22;5054786;28;20135;-74
2023/09/17 03:29:07;;;;;;;11.88;8.88;;;;;;;16.01;100.00;100766.72;5068505;28;20044;-73
2023/09/17 03:31:35;;;;;;;11.38;8.60;;;;;;;16.00;100.00;100765.03;5072104;28;20135;-74
2023/09/17 03:34:03;;;;;;;12.00;9.25;;;;;;;16.00;100.00;100765.03;5038759;28;20047;-74
2023/09/17 03:36:30;;;;;;;14.32;8.98;;;;;;;16.00;100.00;100770.34;5038475;28;20166;-74
2023/09/17 03:38:59;;;;;;;10.80;9.00;;;;;;;16.01;100.00;100780.00;5032130;28;20078;-72
2023/09/17 03:41:27;;;;;;;9.15;8.13;;;;;;;15.99;100.00;100781.94;5036038;28;20086;-73
2023/09/17 03:43:55;;;;;;;11.52;7.97;;;;;;;15.95;100.00;100768.88;5068290;28;20581;-73
2023/09/17 03:46:22;;;;;;;10.70;9.05;;;;;;;15.95;100.00;100770.72;5034625;28;20133;-74
2023/09/17 03:48:51;;;;;;;11.40;9.55;;;;;;;15.94;100.00;100774.34;5069842;28;20044;-73
2023/09/17 03:51:20;;;;;;;11.98;8.48;;;;;;;15.91;100.00;100775.41;5071298;28;20704;-73
2023/09/17 03:53:49;;;;;;;11.10;8.95;;;;;;;15.88;100.00;100767.66;5037159;28;20056;-72
2023/09/17 03:56:19;;;;;;;13.77;9.13;;;;;;;15.85;100.00;100770.59;5036722;28;20123;-72
2023/09/17 03:58:47;;;;;;;10.75;9.63;;;;;;;15.80;100.00;100782.50;5087113;28;20517;-73
2023/09/17 04:01:15;;;;;;;10.10;8.95;;;;;;;15.77;100.00;100780.13;5054388;28;20548;-73
2023/09/17 04:03:42;;;;;;;13.02;8.68;;;;;;;15.76;100.00;100776.63;5069559;28;20056;-72
2023/09/17 04:06:09;;;;;;;13.73;9.60;;;;;;;15.77;100.00;100777.47;5041662;28;20130;-75
2023/09/17 04:08:37;;;;;;;11.63;9.15;;;;;;;15.75;100.00;100774.06;5052811;28;20498;-74
2023/09/17 04:11:04;;;;;;;13.48;9.10;;;;;;;15.74;100.00;100780.34;5054757;28;20075;-73
2023/09/17 04:13:32;;;;;;;13.07;9.57;;;;;;;15.70;100.00;100783.22;5054584;28;20040;-75
2023/09/17 04:16:00;;;;;;;12.63;9.55;;;;;;;15.65;100.00;100785.41;5049220;28;20097;-74
2023/09/17 04:18:27;;;;;;;13.73;9.35;;;;;;;15.64;100.00;100780.22;5053181;28;20048;-73
2023/09/17 04:20:55;;;;;;;14.77;8.63;;;;;;;15.60;100.00;100779.56;5035585;28;20097;-74
2023/09/17 04:23:24;;;;;;;11.15;9.23;;;;;;;15.58;100.00;100791.25;5053958;28;20052;-74
2023/09/17 04:25:52;;;;;;;13.68;10.43;;;;;;;15.55;100.00;100789.72;5053190;28;20129;-73
2023/09/17 04:28:19;;;;;;;12.13;10.05;;;;;;;15.54;100.00;100787.19;5051228;28;20052;-73
2023/09/17 04:30:47;;;;;;;12.13;9.32;;;;;;;15.51;100.00;100795.38;5067983;28;20060;-72
2023/09/17 04:33:14;;;;;;;11.55;9.07;;;;;;;15.50;100.00;100791.03;5052781;28;20597;-74
2023/09/17 04:35:42;;;;;;;13.07;9.50;;;;;;;15.48;100.00;100812.34;5051154;28;20083;-73
2023/09/17 04:38:10;;;;;;;14.77;9.90;;;;;;;15.45;100.00;100805.50;5054065;28;20073;-73
2023/09/17 04:40:37;;;;;;;12.55;8.90;;;;;;;15.42;100.00;100804.88;5052772;28;20086;-73
2023/09/17 04:43:05;;;;;;;12.50;9.77;;;;;;;15.47;100.00;100802.72;5070181;28;20464;-74
2023/09/17 04:45:39;;;;;;;10.30;8.77;;;;;;;15.52;100.00;100797.91;5052820;28;20141;-73
2023/09/17 04:48:08;;;;;;;12.13;8.38;;;;;;;15.53;100.00;100796.91;5065381;28;20121;-74
2023/09/17 04:50:36;;;;;;;13.30;10.15;;;;;;;15.55;100.00;100802.13;5052495;28;20372;-74
2023/09/17 04:53:04;;;;;;;11.45;8.88;;;;;;;15.55;100.00;100802.97;5066217;28;20101;-74
2023/09/17 04:55:31;;;;;;;10.65;9.43;;;;;;;15.56;100.00;100809.97;5051622;28;20483;-74
2023/09/17 04:57:59;;;;;;;15.40;9.98;;;;;;;15.56;100.00;100817.09;5053212;28;20105;-73
2023/09/17 05:00:27;;;;;;;10.75;9.07;;;;;;;15.59;100.00;100814.22;5051176;28;20040;-74
2023/09/17 05:02:54;;;;;;;10.63;8.90;;;;;;;15.61;100.00;100826.38;5052817;28;20078;-73
2023/09/17 05:05:22;;;;;;;11.73;10.05;;;;;;;15.63;100.00;100816.50;5087182;28;20463;-73
2023/09/17 05:07:53;;;;;;;11.07;9.98;;;;;;;15.66;100.00;100816.28;5037697;28;20044;-73
2023/09/17 05:10:21;;;;;;;11.27;9.80;;;;;;;15.72;100.00;100814.13;5069602;28;20074;-74
2023/09/17 05:12:49;;;;;;;10.05;8.10;;;;;;;15.76;100.00;100820.88;5035336;28;20063;-73
2023/09/17 05:15:16;;;;;;;11.65;9.30;;;;;;;15.79;100.00;100813.53;5061359;28;20048;-74
2023/09/17 05:17:43;;;;;;;12.00;9.38;;;;;;;15.84;100.00;100810.50;5052661;28;20133;-74
2023/09/17 05:20:11;;;;;;;10.68;9.23;;;;;;;15.89;100.00;100819.78;5050741;28;20059;-74
2023/09/17 05:22:38;;;;;;;13.18;8.75;;;;;;;15.95;100.00;100821.16;5052683;28;20075;-74
2023/09/17 05:25:10;;;;;;;12.35;8.85;;;;;;;15.98;100.00;100817.41;5052552;28;20048;-74
2023/09/17 05:27:38;;;;;;;12.55;9.18;;;;;;;16.01;100.00;100825.97;5069843;28;20067;-75
2023/09/17 05:30:06;;;;;;;12.63;9.70;;;;;;;16.05;100.00;100822.09;5081119;28;20060;-73
2023/09/17 05:32:33;;;;;;;14.65;9.13;;;;;;;16.13;100.00;100825.00;5092998;28;20122;-74
2023/09/17 05:35:03;;;;;;;12.32;9.00;;;;;;;16.22;100.00;100814.63;5053591;28;20131;-73
2023/09/17 05:37:30;;;;;;;10.70;9.20;;;;;;;16.33;100.00;100823.41;5093311;28;20498;-73
2023/09/17 05:39:58;;;;;;;13.35;9.45;;;;;;;16.42;100.00;100825.34;5052201;28;20491;-74
2023/09/17 05:42:26;;;;;;;10.40;8.88;;;;;;;16.49;100.00;100824.88;5062398;28;20654;-74
2023/09/17 05:44:53;;;;;;;13.02;9.15;;;;;;;16.59;100.00;100833.78;5054258;28;20151;-74
2023/09/17 05:47:21;;;;;;;14.13;10.68;;;;;;;16.68;100.00;100830.38;5043653;28;20458;-74
2023/09/17 05:49:48;;;;;;;13.68;8.98;;;;;;;16.73;100.00;100833.53;5072522;28;20068;-73
2023/09/17 05:52:16;;;;;;;14.65;8.95;;;;;;;16.81;100.00;100839.06;5055682;28;20197;-74
2023/09/17 05:54:43;;;;;;;17.00;9.45;;;;;;;16.91;100.00;100841.81;5053058;28;20089;-74
2023/09/17 05:57:11;;;;;;;10.95;8.70;;;;;;;17.03;100.00;100839.97;5050751;28;20036;-73
2023/09/17 05:59:38;;;;;;;10.77;8.73;;;;;;;17.12;100.00;100840.06;5054007;28;20076;-73
2023/09/17 06:02:07;;;;;;;10.93;8.40;;;;;;;17.24;99.75;100842.66;5056200;28;20044;-74
2023/09/17 06:04:35;;;;;;;14.02;8.20;;;;;;;17.38;99.21;100847.66;5055182;28;20054;-75
2023/09/17 06:07:03;;;;;;;11.75;8.27;;;;;;;17.50;98.06;100843.13;5073169;28;20083;-73
2023/09/17 06:09:31;;;;;;;10.93;7.70;;;;;;;17.64;97.18;100851.63;5055113;28;20117;-74
2023/09/17 06:11:58;;;;;;;11.40;9.10;;;;;;;17.71;97.29;100859.94;5035132;28;20044;-74
2023/09/17 06:14:26;;;;;;;17.95;9.98;;;;;;;17.78;96.60;100862.94;5050453;28;20446;-73
2023/09/17 06:16:53;;;;;;;11.70;8.65;;;;;;;17.89;96.47;100865.56;5037466;28;20132;-73
2023/09/17 06:19:25;;;;;;;10.52;9.40;;;;;;;17.98;95.69;100870.09;5057804;28;20093;-73
2023/09/17 06:21:53;;;;;;;10.13;9.13;;;;;;;18.02;95.23;100871.50;5072654;28;20055;-72
2023/09/17 06:24:21;;;;;;;11.75;8.88;;;;;;;18.06;95.35;100872.94;5041154;28;20063;-73
2023/09/17 06:26:48;;;;;;;9.20;7.97;;;;;;;18.12;94.86;100867.06;5053894;28;20141;-73
2023/09/17 06:29:16;;;;;;;14.05;9.75;;;;;;;18.22;94.42;100867.09;5054731;28;20097;-73
2023/09/17 06:31:44;;;;;;;12.13;9.50;;;;;;;18.32;93.97;100875.13;5037986;28;20051;-73
2023/09/17 06:34:11;;;;;;;9.90;8.80;;;;;;;18.40;93.45;100862.00;5054243;28;20106;-74
2023/09/17 06:36:39;;;;;;;10.60;8.30;;;;;;;18.53;92.43;100873.25;5071285;28;20102;-74
2023/09/17 06:39:06;;;;;;;8.90;7.90;;;;;;;18.62;91.64;100872.44;5037885;28;20044;-73
2023/09/17 06:41:34;;;;;;;10.80;9.60;;;;;;;18.69;90.96;100867.47;5055945;28;20635;-73
2023/09/17 06:44:05;;;;;;;10.23;8.23;;;;;;;18.78;90.33;100871.97;5071526;28;20447;-74
2023/09/17 06:46:33;;;;;;;12.68;8.90;;;;;;;18.91;89.63;100874.34;5037994;28;20122;-73
2023/09/17 06:49:01;;;;;;;10.88;8.27;;;;;;;19.01;89.21;100871.72;5048990;28;20055;-74
2023/09/17 06:51:28;;;;;;;9.80;8.77;;;;;;;19.05;88.64;100873.97;5070152;28;20483;-73
2023/09/17 06:53:55;;;;;;;13.38;9.32;;;;;;;19.10;88.74;100879.72;5044577;28;20131;-74
2023/09/17 06:56:26;;;;;;;10.65;8.75;;;;;;;19.16;88.33;100883.66;5054315;28;20142;-73
2023/09/17 06:58:53;;;;;;;17.27;8.88;;;;;;;19.27;87.81;100888.84;5032589;28;20166;-73
2023/09/17 07:01:20;;;;;;;16.55;10.27;;;;;;;19.31;87.64;100886.75;5036919;28;20059;-73
2023/09/17 07:03:48;;;;;;;10.32;8.60;;;;;;;19.38;87.43;100882.53;5087985;28;20075;-74
2023/09/17 07:06:16;;;;;;;10.68;9.35;;;;;;;19.51;86.83;100891.09;5087465;28;20105;-73
2023/09/17 07:08:43;;;;;;;11.68;9.38;;;;;;;19.65;85.98;100890.69;5071347;28;20076;-74
2023/09/17 07:11:11;;;;;;;10.00;8.60;;;;;;;19.81;85.44;100903.47;5071409;28;20108;-73
2023/09/17 07:13:40;;;;;;;11.65;9.90;;;;;;;19.95;84.88;100894.19;5037546;28;20091;-73
2023/09/17 07:16:08;;;;;;;10.30;9.30;;;;;;;20.07;84.29;100903.69;5052621;28;20047;-73
2023/09/17 07:18:36;;;;;;;12.13;9.32;;;;;;;20.22;83.63;100896.06;5084933;28;20106;-74
2023/09/17 07:21:03;;;;;;;12.77;10.25;;;;;;;20.35;82.74;100898.38;5055669;28;20117;-74
2023/09/17 07:23:32;;;;;;;12.15;8.55;;;;;;;20.45;82.27;100892.03;5051137;28;20074;-73
2023/09/17 07:26:00;;;;;;;12.40;9.52;;;;;;;20.58;81.36;100891.72;5064348;28;20071;-74
2023/09/17 07:28:27;;;;;;;9.82;8.82;;;;;;;20.70;80.86;100895.84;5052969;28;20104;-73
2023/09/17 07:30:57;;;;;;;9.95;9.02;;;;;;;20.78;80.19;100899.63;5051197;28;20487;-74
2023/09/17 07:33:24;;;;;;;10.73;8.88;;;;;;;20.89;79.78;100894.06;5036709;28;20102;-73
2023/09/17 07:35:52;;;;;;;9.93;8.05;;;;;;;21.01;79.62;100895.53;5061742;28;20519;-74
2023/09/17 07:38:20;;;;;;;12.80;10.27;;;;;;;21.04;78.55;100895.22;5036954;28;20079;-74
2023/09/17 07:40:48;;;;;;;15.73;10.63;;;;;;;21.11;78.90;100893.63;5051224;28;20075;-74
2023/09/17 07:43:15;;;;;;;11.85;9.95;;;;;;;21.28;78.04;100905.34;5049850;28;20048;-74
2023/09/17 07:45:42;;;;;;;12.52;9.15;;;;;;;21.42;77.42;100906.66;5062443;28;20106;-74
2023/09/17 07:48:10;;;;;;;9.82;8.80;;;;;;;21.61;76.96;100903.81;5066957;28;20460;-74
2023/09/17 07:50:39;;;;;;;10.25;9.15;;;;;;;21.70;76.21;100900.22;5068616;28;20044;-74
2023/09/17 07:53:07;;;;;;;12.52;8.93;;;;;;;21.79;75.99;100906.44;5037247;28;20044;-74
2023/09/17 07:55:35;;;;;;;17.05;8.88;;;;;;;21.91;75.38;100913.25;5069425;28;20051;-74
2023/09/17 07:58:03;;;;;;;9.15;8.25;;;;;;;22.08;74.72;100905.31;5069675;28;20135;-74
2023/09/17 08:00:30;;;;;;;9.68;8.68;;;;;;;22.25;74.52;100909.81;5034962;28;20068;-75
2023/09/17 08:02:58;;;;;;;10.77;8.77;;;;;;;22.32;73.48;100904.66;5052301;28;20471;-75
2023/09/17 08:05:26;;;;;;;10.27;8.90;;;;;;;22.41;72.64;100909.03;5037583;28;20094;-74
2023/09/17 08:07:53;;;;;;;12.77;9.68;;;;;;;22.49;72.79;100903.72;5036126;28;20566;-75
2023/09/17 08:10:21;;;;;;;9.38;7.90;;;;;;;22.54;72.21;100909.44;5052747;28;20051;-74
2023/09/17 08:12:48;;;;;;;9.57;8.57;;;;;;;22.60;72.40;100908.78;5068059;28;20121;-74
2023/09/17 08:15:16;;;;;;;16.15;8.32;;;;;;;22.73;71.90;100914.53;5054248;28;20552;-75
2023/09/17 08:17:44;;;;;;;10.35;8.25;;;;;;;22.80;71.06;100913.91;5049183;28;20043;-73
2023/09/17 08:20:11;;;;;;;8.98;8.07;;;;;;;22.91;70.71;100921.69;5069456;28;20142;-74
2023/09/17 08:22:39;;;;;;;10.15;8.25;;;;;;;23.04;70.71;100914.00;5065333;28;20105;-74
2023/09/17 08:25:08;;;;;;;15.13;8.18;;;;;;;23.12;69.47;100918.56;5068934;28;20052;-75
2023/09/17 08:27:36;;;;;;;11.82;9.10;;;;;;;23.05;69.34;100912.16;5052348;28;20040;-74
2023/09/17 08:30:07;;;;;;;10.82;8.75;;;;;;;23.15;69.69;100911.00;5051879;28;20098;-75
2023/09/17 08:32:34;;;;;;;11.10;8.82;;;;;;;23.29;69.09;100911.38;5063006;28;20146;-73
2023/09/17 08:35:03;;;;;;;12.18;8.15;;;;;;;23.34;69.45;100911.72;5046529;28;20052;-74
2023/09/17 08:37:30;;;;;;;9.55;8.40;;;;;;;23.53;68.32;100922.13;5084348;28;20091;-74
2023/09/17 08:39:58;;;;;;;13.27;9.13;;;;;;;23.56;67.83;100912.91;5049022;28;20075;-75
2023/09/17 08:42:27;;;;;;;11.93;8.55;;;;;;;23.63;67.34;100916.56;5052096;28;20054;-74
2023/09/17 08:44:58;;;;;;;18.42;7.88;;;;;;;23.82;66.90;100912.72;5067538;28;20073;-74
2023/09/17 08:47:26;;;;;;;9.05;7.50;;;;;;;23.94;66.25;100914.91;5064192;28;20134;-74
2023/09/17 08:49:53;;;;;;;9.60;8.45;;;;;;;24.03;65.87;100915.72;5082293;28;20083;-74
2023/09/17 08:52:22;;;;;;;14.10;8.93;;;;;;;24.09;65.40;100915.06;5068571;28;20127;-74
2023/09/17 08:54:49;;;;;;;10.43;8.13;;;;;;;24.16;65.69;100909.81;5049855;28;20076;-73
2023/09/17 08:57:21;;;;;;;17.98;8.80;;;;;;;24.24;64.77;100907.97;5057311;28;20052;-73
2023/09/17 08:59:54;;;;;;;9.88;7.93;;;;;;;24.37;64.85;100907.44;5059676;28;20102;-75
2023/09/17 09:02:25;;;;;;;8.00;7.20;;;;;;;24.53;65.01;100909.22;5057078;28;20131;-74
2023/09/17 09:04:54;;;;;;;9.73;7.95;;;;;;;24.47;63.66;100904.56;5037747;28;20084;-75
2023/09/17 09:07:22;;;;;;;8.55;7.10;;;;;;;24.60;63.92;100907.53;5059528;28;20048;-74
2023/09/17 09:09:53;;;;;;;8.80;7.53;;;;;;;24.62;63.09;100907.34;5059337;28;20052;-74
2023/09/17 09:12:21;;;;;;;7.03;6.32;;;;;;;24.68;63.04;100912.03;5061775;28;20080;-74
2023/09/17 09:14:48;;;;;;;9.88;6.82;;;;;;;24.70;62.41;100904.63;5061170;28;20048;-73
2023/09/17 09:17:15;;;;;;;14.57;6.82;;;;;;;24.84;61.69;100901.16;5063599;28;20075;-74
2023/09/17 09:19:43;;;;;;;9.02;6.47;;;;;;;24.94;61.64;100904.47;5065435;28;20139;-74
2023/09/17 09:22:10;;;;;;;8.68;6.28;;;;;;;25.06;61.58;100909.47;5049738;28;20098;-74
2023/09/17 09:24:47;;;;;;;10.18;6.45;;;;;;;25.18;61.67;100906.22;5058046;28;20148;-74
2023/09/17 09:27:15;;;;;;;6.55;5.90;;;;;;;25.22;61.25;100910.25;5064153;28;20090;-74
2023/09/17 09:30:09;;;;;;;9.65;6.53;;;;;;;25.27;60.87;100917.78;5083982;28;20051;-74
2023/09/17 09:32:37;;;;;;;8.27;6.07;;;;;;;25.26;60.79;100905.31;5040418;28;20517;-74
2023/09/17 09:35:05;;;;;;;10.98;6.13;;;;;;;25.33;60.47;100905.44;5046742;28;20133;-74
2023/09/17 09:37:34;;;;;;;9.43;6.30;;;;;;;25.40;60.04;100903.72;5061013;28;20078;-74
2023/09/17 09:40:02;;;;;;;6.95;5.70;;;;;;;25.49;60.09;100894.56;5078954;28;20102;-74
2023/09/17 09:42:30;;;;;;;15.43;6.50;;;;;;;25.57;59.02;100899.84;5045287;28;20071;-75
2023/09/17 09:44:58;;;;;;;7.13;6.05;;;;;;;25.75;58.72;100900.34;5061041;28;20084;-75
2023/09/17 09:47:25;;;;;;;6.07;5.47;;;;;;;25.81;57.56;100901.53;5069839;28;20051;-75
2023/09/17 09:49:53;;;;;;;7.35;5.55;;;;;;;25.93;56.84;100899.22;5065620;28;20059;-74
2023/09/17 09:52:21;;;;;;;5.90;5.30;;;;;;;26.07;57.27;100901.09;5040889;28;20068;-74
2023/09/17 09:54:48;;;;;;;7.70;6.50;;;;;;;26.07;57.10;100902.94;5050048;28;20064;-74
2023/09/17 09:57:18;;;;;;;7.55;6.75;;;;;;;26.07;57.21;100906.47;5044648;28;20139;-75
2023/09/17 09:59:48;;;;;;;8.77;7.47;;;;;;;25.98;57.26;100905.75;5062734;28;20132;-75
2023/09/17 10:02:17;;;;;;;7.72;6.50;;;;;;;25.96;56.58;100901.56;5045288;28;20070;-75
2023/09/17 10:04:45;;;;;;;9.02;6.72;;;;;;;26.05;56.87;100895.06;5063858;28;20044;-74
2023/09/17 10:07:14;;;;;;;9.68;6.20;;;;;;;26.14;56.45;100898.50;5083856;28;20386;-74
2023/09/17 10:09:42;;;;;;;7.53;6.75;;;;;;;26.13;55.75;100897.66;5083500;28;20545;-74
2023/09/17 10:12:10;;;;;;;7.30;6.20;;;;;;;26.24;55.97;100899.06;5044496;28;20431;-75
2023/09/17 10:14:38;;;;;;;10.23;6.60;;;;;;;26.34;55.51;100896.06;5065356;28;20068;-76
2023/09/17 10:17:06;;;;;;;7.32;6.30;;;;;;;26.40;55.23;100906.13;5032617;28;20052;-74
2023/09/17 10:19:34;;;;;;;9.77;6.25;;;;;;;26.45;54.71;100903.75;5066559;28;20135;-74
2023/09/17 10:22:07;;;;;;;6.22;5.60;;;;;;;26.68;54.54;100893.66;5062741;28;20079;-74
2023/09/17 10:24:36;;;;;;;7.22;6.00;;;;;;;26.80;54.34;100893.19;5081773;28;20146;-74
2023/09/17 10:27:05;;;;;;;9.55;5.78;;;;;;;26.79;53.25;100899.56;5049053;28;20531;-74
2023/09/17 10:29:34;;;;;;;6.63;6.00;;;;;;;26.84;53.26;100894.44;5068580;28;20048;-74
2023/09/17 10:32:03;;;;;;;7.25;4.60;;;;;;;26.93;53.75;100893.31;5064341;28;20174;-74
2023/09/17 10:34:32;;;;;;;7.63;4.90;;;;;;;27.21;53.31;100891.56;5064881;28;20163;-74
2023/09/17 10:37:03;;;;;;;13.32;4.85;;;;;;;27.30;50.47;100894.97;5064853;28;20582;-74
2023/09/17 10:39:32;;;;;;;5.28;4.78;;;;;;;27.50;50.40;100895.16;5044365;28;20040;-73
2023/09/17 10:42:02;;;;;;;5.30;4.65;;;;;;;27.66;49.32;100894.06;5084304;28;20127;-72
2023/09/17 10:44:30;;;;;;;5.03;4.50;;;;;;;27.42;48.10;100885.31;5045830;28;20530;-74
2023/09/17 10:47:01;;;;;;;7.85;4.40;;;;;;;27.51;47.40;100897.69;5061228;28;20436;-75
2023/09/17 10:49:31;;;;;;;8.35;4.72;;;;;;;27.61;46.69;100900.03;5060728;28;20445;-74
2023/09/17 10:52:00;;;;;;;6.25;3.83;;;;;;;27.75;45.57;100898.31;5044183;28;20059;-74
2023/09/17 10:54:27;;;;;;;4.32;3.90;;;;;;;27.67;46.22;100901.13;5066330;28;20506;-74
2023/09/17 10:56:55;;;;;;;4.75;3.60;;;;;;;27.96;46.19;100903.69;5029218;28;20536;-74
2023/09/17 10:59:24;;;;;;;4.28;3.70;;;;;;;28.20;45.85;100902.38;5031889;28;20052;-75
2023/09/17 11:01:52;;;;;;;7.93;4.18;;;;;;;28.24;44.00;100916.34;5048133;28;20087;-76
2023/09/17 11:04:21;;;;;;;4.63;4.00;;;;;;;28.42;44.44;100913.16;5077803;28;20097;-74
2023/09/17 11:06:49;;;;;;;6.82;4.10;;;;;;;28.70;43.66;100902.22;5080626;28;20174;-76
2023/09/17 11:09:18;;;;;;;5.95;3.47;;;;;;;28.83;42.84;100906.88;5082329;28;20072;-75
2023/09/17 11:11:45;;;;;;;5.95;3.70;;;;;;;28.93;42.46;100899.19;5040548;28;20078;-74
2023/09/17 11:14:14;;;;;;;5.40;3.63;;;;;;;29.20;42.38;100891.97;5045093;28;20122;-74
2023/09/17 11:16:42;;;;;;;4.95;3.45;;;;;;;29.34;41.71;100896.38;5033656;28;20079;-73
2023/09/17 11:19:15;;;;;;;3.83;3.20;;;;;;;29.54;42.02;100896.41;5042692;28;20052;-75
2023/09/17 11:22:01;;;;;;;6.40;4.20;;;;;;;29.82;42.41;100901.63;5056500;28;20071;-74